Terminal Aerodrome Forecast
Issued by NWS Wilmington, NC

Home | Current Version | Previous Version | Text Only | Print | Product List | Glossary On
Versions: 1 2 3 4 5 6 7 8 9 10 11 12 13 14 15 16 17 18
745
FTUS42 KILM 261120
TAFLBT
TAF
KLBT 261120Z 2612/2712 29003KT P6SM BKN050
     FM261400 26004KT P6SM SCT050
      TEMPO 2614/2618 BKN050 OVC090
     FM261800 23008KT P6SM BKN250
     FM262200 20006KT P6SM SCT250
     FM270100 18003KT P6SM SKC=

USA.gov is the U.S. government's official web portal to all federal, state and local government web resources and services.